»·PEaware :: N3045V KRAL-KFUL

N3045V :: KRAL-KFUL

FLIGHT INFORMATION

Flight Status: Arrived
Operator: Privately registered:
United States
More flights under this callsign
Pilot: Ernie H. (21247)
Aircraft: CESSNA 172 SKYHAWK
(C172)
More flights by this aircraft type
Origin: KRAL Riverside Mun
United States
Destination: KFUL Fullerton Mun
United States
More flights between these airports :: More routes between these airports
Route: PDZ PDZ270/015 DOWDD V394 SLI
File this flight plan on PilotEdge
Remarks:
Altitude:
(Current/Filed)
4,000ft
Speed:
(Current/Filed)
110kts
Departed: 17-Sep-19 02:25 PM
Arrived: 17-Sep-19 02:53 PM
Distance/Time
Traveled:
27nm/0:28
Distance/Time
To Go:
Arrived

Flight Plot

Page will automatically refresh every two minutes.


Map Options




Map Legend


Flown Route
Filed Route
Departure Airport
Arrival Airport
Navaid (VOR, NDB)
Fix

Horizontal Profiles

Position Reports

Time Latitude Longitude Heading Altitude Ground
Speed
17-Sep-19 13:57 33.951032 -117.446190 104 778ft 0kts
17-Sep-19 13:58 33.951032 -117.446190 104 778ft 0kts
17-Sep-19 13:59 33.951032 -117.446190 104 778ft 0kts
17-Sep-19 14:00 33.951032 -117.446190 104 778ft 0kts
17-Sep-19 14:01 33.951032 -117.446190 104 778ft 0kts
17-Sep-19 14:02 33.951032 -117.446190 104 778ft 0kts
17-Sep-19 14:03 33.951032 -117.446190 104 778ft 0kts
17-Sep-19 14:04 33.951032 -117.446190 104 778ft 0kts
17-Sep-19 14:05 33.951032 -117.446190 104 778ft 0kts
17-Sep-19 14:06 33.951032 -117.446190 104 778ft 0kts
17-Sep-19 14:07 33.951032 -117.446190 104 778ft 0kts
17-Sep-19 14:08 33.951032 -117.446190 104 778ft 0kts
17-Sep-19 14:09 33.951032 -117.446190 104 778ft 0kts
17-Sep-19 14:10 33.951032 -117.446190 104 778ft 0kts
17-Sep-19 14:11 33.951032 -117.446190 104 778ft 0kts
17-Sep-19 14:12 33.951032 -117.446190 104 778ft 0kts
17-Sep-19 14:13 33.951032 -117.446190 104 778ft 0kts
17-Sep-19 14:14 33.951032 -117.446190 104 778ft 0kts
17-Sep-19 14:15 33.951032 -117.446190 104 778ft 0kts
17-Sep-19 14:16 33.951957 -117.446363 47 778ft 9kts
17-Sep-19 14:17 33.949953 -117.434939 23 778ft 0kts
17-Sep-19 14:18 33.949953 -117.434939 23 778ft 0kts
17-Sep-19 14:19 33.949953 -117.434939 23 778ft 0kts
17-Sep-19 14:20 33.949967 -117.434932 22 778ft 0kts
17-Sep-19 14:21 33.949967 -117.434932 22 778ft 0kts
17-Sep-19 14:22 33.949967 -117.434932 22 778ft 0kts
17-Sep-19 14:23 33.949967 -117.434932 22 778ft 0kts
17-Sep-19 14:24 33.952141 -117.442662 282 1011ft 64kts
17-Sep-19 14:25 33.956518 -117.466010 282 1941ft 73kts
17-Sep-19 14:26 33.955273 -117.481512 222 2548ft 76kts
17-Sep-19 14:27 33.945172 -117.493544 225 3153ft 76kts
17-Sep-19 14:28 33.935411 -117.506063 227 3766ft 73kts
17-Sep-19 14:29 33.926719 -117.517624 231 4362ft 63kts
17-Sep-19 14:30 33.921073 -117.533986 273 4056ft 131kts
17-Sep-19 14:31 33.925071 -117.557952 284 4019ft 132kts
17-Sep-19 14:32 33.930271 -117.581594 285 4020ft 132kts
17-Sep-19 14:33 33.935559 -117.605288 285 4020ft 132kts
17-Sep-19 14:34 33.940624 -117.627476 286 4020ft 132kts
17-Sep-19 14:35 33.935566 -117.648930 245 4018ft 131kts
17-Sep-19 14:36 33.928200 -117.670632 247 4020ft 132kts
17-Sep-19 14:37 33.921330 -117.691411 247 4020ft 132kts
17-Sep-19 14:38 33.914109 -117.713343 248 4020ft 132kts
17-Sep-19 14:39 33.911405 -117.735926 285 3996ft 133kts
17-Sep-19 14:40 33.913723 -117.759440 265 3729ft 134kts
17-Sep-19 14:41 33.910750 -117.781263 258 3290ft 102kts
17-Sep-19 14:42 33.907289 -117.799885 256 2625ft 102kts
17-Sep-19 14:43 33.903700 -117.818208 256 2689ft 94kts
17-Sep-19 14:44 33.900054 -117.837244 257 2417ft 110kts
17-Sep-19 14:45 33.895712 -117.860527 256 2032ft 106kts
17-Sep-19 14:46 33.891586 -117.880630 256 2031ft 77kts
17-Sep-19 14:47 33.886201 -117.898821 250 1636ft 77kts
17-Sep-19 14:48 33.882698 -117.923537 260 1100ft 72kts
17-Sep-19 14:49 33.879787 -117.941724 256 897ft 71kts
17-Sep-19 14:50 33.875831 -117.960493 256 528ft 70kts
17-Sep-19 14:51 33.872360 -117.978015 258 110ft 51kts
17-Sep-19 14:52 33.870595 -117.980677 104 93ft 0kts

Navigation Log

Ident Type
Flight plan parsing failed, navigation log unavailable